Weather at Dinard-Pleurtuit-Saint-Malo Airport

Public forecast

Using degrees Celsius for public forecast. Weather courtesy of forecast.io.

Current aviation weather report (METAR) for Dinard-Pleurtuit-Saint-Malo Airport

2024/05/22 04:30 (retrieved 25 minutes ago)

LFRD 220430Z AUTO 23006KT 9000 BKN017 11/10 Q1011 TEMPO BKN008

Closest aviation forecast (TAF) to Dinard-Pleurtuit-Saint-Malo Airport

Forecast is more than 6 hours old.

Closest forecast is Quimper-Cornouaille Airport, 91.3 nm (169.1 km) WSW.

2024/05/21 21:27 (retrieved 7 hours ago)

TAF TAF LFRQ 212121Z 2121/2218 CNL